sensor_id;sensor_type;location;lat;lon;timestamp;pressure;altitude;pressure_sealevel;temperature;humidity
10135;BME280;5107;48.850;8.924;2023-04-30T00:01:33;97092.91;;;11.28;82.35
10135;BME280;5107;48.850;8.924;2023-04-30T00:03:59;97096.53;;;11.27;83.14
10135;BME280;5107;48.850;8.924;2023-04-30T00:06:24;97098.66;;;11.40;81.66
10135;BME280;5107;48.850;8.924;2023-04-30T00:08:50;97089.75;;;11.25;82.84
10135;BME280;5107;48.850;8.924;2023-04-30T00:11:15;97094.34;;;11.23;82.27
10135;BME280;5107;48.850;8.924;2023-04-30T00:13:41;97095.69;;;11.27;81.74
10135;BME280;5107;48.850;8.924;2023-04-30T00:16:07;97091.56;;;11.24;81.80
10135;BME280;5107;48.850;8.924;2023-04-30T00:18:32;97094.34;;;11.15;82.48
10135;BME280;5107;48.850;8.924;2023-04-30T00:20:57;97094.03;;;11.10;83.34
10135;BME280;5107;48.850;8.924;2023-04-30T00:23:23;97098.63;;;10.99;83.52
10135;BME280;5107;48.850;8.924;2023-04-30T00:25:48;97101.94;;;11.10;82.90
10135;BME280;5107;48.850;8.924;2023-04-30T00:28:13;97105.25;;;11.20;82.22
10135;BME280;5107;48.850;8.924;2023-04-30T00:30:38;97103.25;;;11.22;81.88
10135;BME280;5107;48.850;8.924;2023-04-30T00:33:04;97103.44;;;11.12;82.36
10135;BME280;5107;48.850;8.924;2023-04-30T00:35:29;97104.25;;;11.13;82.39
10135;BME280;5107;48.850;8.924;2023-04-30T00:37:55;97105.56;;;11.17;82.09
10135;BME280;5107;48.850;8.924;2023-04-30T00:40:20;97101.25;;;11.08;82.37
10135;BME280;5107;48.850;8.924;2023-04-30T00:42:46;97114.13;;;11.02;83.05
10135;BME280;5107;48.850;8.924;2023-04-30T00:45:13;97110.47;;;10.95;83.16
10135;BME280;5107;48.850;8.924;2023-04-30T00:47:38;97117.41;;;11.05;82.29
10135;BME280;5107;48.850;8.924;2023-04-30T00:50:05;97110.81;;;11.09;81.83
10135;BME280;5107;48.850;8.924;2023-04-30T00:52:30;97116.41;;;11.06;81.74
10135;BME280;5107;48.850;8.924;2023-04-30T00:54:56;97109.50;;;11.05;82.11
10135;BME280;5107;48.850;8.924;2023-04-30T00:57:22;97112.75;;;10.90;82.90
10135;BME280;5107;48.850;8.924;2023-04-30T00:59:48;97105.69;;;10.99;82.10
10135;BME280;5107;48.850;8.924;2023-04-30T01:02:13;97105.69;;;10.99;82.33
10135;BME280;5107;48.850;8.924;2023-04-30T01:04:39;97106.84;;;10.96;82.72
10135;BME280;5107;48.850;8.924;2023-04-30T01:07:04;97100.78;;;10.96;81.93
10135;BME280;5107;48.850;8.924;2023-04-30T01:09:30;97101.25;;;10.91;82.38
10135;BME280;5107;48.850;8.924;2023-04-30T01:12:01;97103.56;;;10.86;82.54
10135;BME280;5107;48.850;8.924;2023-04-30T01:14:46;97107.16;;;10.85;82.90
10135;BME280;5107;48.850;8.924;2023-04-30T01:17:33;97102.22;;;10.90;82.48
10135;BME280;5107;48.850;8.924;2023-04-30T01:19:59;97099.13;;;10.87;82.82
10135;BME280;5107;48.850;8.924;2023-04-30T01:28:14;97090.38;;;10.78;83.11
10135;BME280;5107;48.850;8.924;2023-04-30T01:30:47;97088.06;;;10.75;82.83
10135;BME280;5107;48.850;8.924;2023-04-30T01:33:13;97092.34;;;10.76;83.04
10135;BME280;5107;48.850;8.924;2023-04-30T01:38:48;97086.09;;;10.77;82.81
10135;BME280;5107;48.850;8.924;2023-04-30T01:46:33;97086.06;;;10.69;83.43
10135;BME280;5107;48.850;8.924;2023-04-30T01:49:18;97084.72;;;10.65;83.50
10135;BME280;5107;48.850;8.924;2023-04-30T01:51:53;97086.22;;;10.59;84.46
10135;BME280;5107;48.850;8.924;2023-04-30T01:54:26;97096.44;;;10.62;83.57
10135;BME280;5107;48.850;8.924;2023-04-30T01:57:01;97090.34;;;10.62;83.40
10135;BME280;5107;48.850;8.924;2023-04-30T01:59:30;97092.31;;;10.60;83.55
10135;BME280;5107;48.850;8.924;2023-04-30T02:01:56;97090.66;;;10.59;83.68
10135;BME280;5107;48.850;8.924;2023-04-30T02:04:21;97085.69;;;10.56;83.89
10135;BME280;5107;48.850;8.924;2023-04-30T02:06:46;97095.91;;;10.59;83.47
10135;BME280;5107;48.850;8.924;2023-04-30T02:09:12;97085.22;;;10.52;83.63
10135;BME280;5107;48.850;8.924;2023-04-30T02:11:37;97093.56;;;10.48;83.97
10135;BME280;5107;48.850;8.924;2023-04-30T02:14:02;97082.38;;;10.38;84.30
10135;BME280;5107;48.850;8.924;2023-04-30T02:16:27;97081.53;;;10.37;84.24
10135;BME280;5107;48.850;8.924;2023-04-30T02:18:53;97072.63;;;10.30;84.92
10135;BME280;5107;48.850;8.924;2023-04-30T02:21:18;97076.59;;;10.34;84.91
10135;BME280;5107;48.850;8.924;2023-04-30T02:23:44;97080.34;;;10.32;84.55
10135;BME280;5107;48.850;8.924;2023-04-30T02:26:09;97089.41;;;10.29;84.67
10135;BME280;5107;48.850;8.924;2023-04-30T02:28:34;97081.34;;;10.31;84.65
10135;BME280;5107;48.850;8.924;2023-04-30T02:31:00;97079.38;;;10.33;84.41
10135;BME280;5107;48.850;8.924;2023-04-30T02:33:25;97077.06;;;10.30;84.78
10135;BME280;5107;48.850;8.924;2023-04-30T02:35:50;97081.69;;;10.36;84.40
10135;BME280;5107;48.850;8.924;2023-04-30T02:38:16;97083.34;;;10.37;84.23
10135;BME280;5107;48.850;8.924;2023-04-30T02:40:41;97082.53;;;10.36;83.76
10135;BME280;5107;48.850;8.924;2023-04-30T02:43:07;97084.34;;;10.36;84.06
10135;BME280;5107;48.850;8.924;2023-04-30T02:45:32;97077.72;;;10.32;83.95
10135;BME280;5107;48.850;8.924;2023-04-30T02:47:57;97086.81;;;10.37;84.25
10135;BME280;5107;48.850;8.924;2023-04-30T02:50:23;97089.91;;;10.33;83.99
10135;BME280;5107;48.850;8.924;2023-04-30T02:52:48;97090.19;;;10.30;83.91
10135;BME280;5107;48.850;8.924;2023-04-30T02:55:13;97085.91;;;10.20;84.19
10135;BME280;5107;48.850;8.924;2023-04-30T02:57:39;97089.13;;;10.14;84.97
10135;BME280;5107;48.850;8.924;2023-04-30T03:00:05;97087.81;;;10.10;85.14
10135;BME280;5107;48.850;8.924;2023-04-30T03:02:31;97083.63;;;10.00;86.03
10135;BME280;5107;48.850;8.924;2023-04-30T03:04:56;97089.09;;;10.06;86.03
10135;BME280;5107;48.850;8.924;2023-04-30T03:07:22;97075.44;;;10.03;86.50
10135;BME280;5107;48.850;8.924;2023-04-30T03:09:47;97074.78;;;10.01;86.23
10135;BME280;5107;48.850;8.924;2023-04-30T03:12:12;97085.97;;;10.03;86.18
10135;BME280;5107;48.850;8.924;2023-04-30T03:14:39;97080.97;;;10.17;85.24
10135;BME280;5107;48.850;8.924;2023-04-30T03:17:04;97075.41;;;10.20;84.62
10135;BME280;5107;48.850;8.924;2023-04-30T03:19:30;97083.94;;;10.22;84.36
10135;BME280;5107;48.850;8.924;2023-04-30T03:21:55;97080.47;;;10.22;84.24
10135;BME280;5107;48.850;8.924;2023-04-30T03:24:21;97080.59;;;10.12;84.38
10135;BME280;5107;48.850;8.924;2023-04-30T03:26:46;97069.97;;;9.96;85.56
10135;BME280;5107;48.850;8.924;2023-04-30T03:29:11;97076.59;;;10.00;85.35
10135;BME280;5107;48.850;8.924;2023-04-30T03:31:37;97077.22;;;9.94;85.80
10135;BME280;5107;48.850;8.924;2023-04-30T03:34:02;97071.41;;;9.82;86.11
10135;BME280;5107;48.850;8.924;2023-04-30T03:36:27;97076.81;;;9.81;86.21
10135;BME280;5107;48.850;8.924;2023-04-30T03:38:53;97084.78;;;9.71;86.97
10135;BME280;5107;48.850;8.924;2023-04-30T03:41:18;97087.88;;;9.67;87.13
10135;BME280;5107;48.850;8.924;2023-04-30T03:43:43;97084.59;;;9.65;87.75
10135;BME280;5107;48.850;8.924;2023-04-30T03:46:09;97088.50;;;9.61;88.13
10135;BME280;5107;48.850;8.924;2023-04-30T03:48:34;97095.56;;;9.60;88.34
10135;BME280;5107;48.850;8.924;2023-04-30T03:50:59;97078.97;;;9.60;88.08
10135;BME280;5107;48.850;8.924;2023-04-30T03:53:25;97078.00;;;9.61;87.93
10135;BME280;5107;48.850;8.924;2023-04-30T03:55:51;97081.59;;;9.60;87.99
10135;BME280;5107;48.850;8.924;2023-04-30T03:58:16;97079.97;;;9.59;88.31
10135;BME280;5107;48.850;8.924;2023-04-30T04:00:42;97072.84;;;9.77;87.31
10135;BME280;5107;48.850;8.924;2023-04-30T04:03:10;97081.94;;;9.90;86.04
10135;BME280;5107;48.850;8.924;2023-04-30T04:05:35;97078.00;;;9.86;85.89
10135;BME280;5107;48.850;8.924;2023-04-30T04:08:01;97079.25;;;10.08;84.67
10135;BME280;5107;48.850;8.924;2023-04-30T04:10:26;97085.09;;;9.94;85.21
10135;BME280;5107;48.850;8.924;2023-04-30T04:12:51;97094.38;;;9.80;85.92
10135;BME280;5107;48.850;8.924;2023-04-30T04:15:17;97090.91;;;9.80;86.51
10135;BME280;5107;48.850;8.924;2023-04-30T04:17:42;97089.72;;;10.00;90.45
10135;BME280;5107;48.850;8.924;2023-04-30T04:20:08;97092.00;;;9.95;87.67
10135;BME280;5107;48.850;8.924;2023-04-30T04:22:33;97087.56;;;9.96;88.37
10135;BME280;5107;48.850;8.924;2023-04-30T04:24:59;97093.63;;;9.96;87.99
10135;BME280;5107;48.850;8.924;2023-04-30T04:27:24;97100.53;;;9.97;88.04
10135;BME280;5107;48.850;8.924;2023-04-30T04:29:50;97102.81;;;9.92;88.67
10135;BME280;5107;48.850;8.924;2023-04-30T04:32:16;97097.94;;;10.05;89.69
10135;BME280;5107;48.850;8.924;2023-04-30T04:34:41;97100.09;;;10.27;89.83
10135;BME280;5107;48.850;8.924;2023-04-30T04:37:07;97092.81;;;10.21;88.19
10135;BME280;5107;48.850;8.924;2023-04-30T04:39:33;97099.66;;;10.14;87.57
10135;BME280;5107;48.850;8.924;2023-04-30T04:42:00;97098.28;;;10.02;87.45
10135;BME280;5107;48.850;8.924;2023-04-30T04:44:26;97106.81;;;10.04;87.58
10135;BME280;5107;48.850;8.924;2023-04-30T04:46:51;97103.88;;;10.07;87.32
10135;BME280;5107;48.850;8.924;2023-04-30T04:49:18;97102.00;;;10.17;86.18
10135;BME280;5107;48.850;8.924;2023-04-30T04:51:43;97105.94;;;10.21;86.39
10135;BME280;5107;48.850;8.924;2023-04-30T04:54:08;97102.72;;;10.27;85.72
10135;BME280;5107;48.850;8.924;2023-04-30T04:56:33;97103.00;;;10.24;85.30
10135;BME280;5107;48.850;8.924;2023-04-30T04:59:00;97103.41;;;10.38;84.62
10135;BME280;5107;48.850;8.924;2023-04-30T05:01:25;97105.06;;;10.47;84.19
10135;BME280;5107;48.850;8.924;2023-04-30T05:03:51;97106.25;;;10.52;83.66
10135;BME280;5107;48.850;8.924;2023-04-30T05:06:17;97106.28;;;10.60;83.21
10135;BME280;5107;48.850;8.924;2023-04-30T05:08:43;97106.31;;;10.69;83.80
10135;BME280;5107;48.850;8.924;2023-04-30T05:11:08;97101.06;;;10.85;82.61
10135;BME280;5107;48.850;8.924;2023-04-30T05:13:34;97109.50;;;11.05;80.98
10135;BME280;5107;48.850;8.924;2023-04-30T05:16:00;97110.50;;;11.12;80.40
10135;BME280;5107;48.850;8.924;2023-04-30T05:18:25;97113.78;;;11.14;80.55
10135;BME280;5107;48.850;8.924;2023-04-30T05:20:50;97110.50;;;11.20;80.28
10135;BME280;5107;48.850;8.924;2023-04-30T05:23:16;97104.41;;;11.19;79.61
10135;BME280;5107;48.850;8.924;2023-04-30T05:25:41;97109.84;;;11.10;79.89
10135;BME280;5107;48.850;8.924;2023-04-30T05:28:06;97108.03;;;11.02;80.07
10135;BME280;5107;48.850;8.924;2023-04-30T05:30:32;97106.69;;;10.98;80.68
10135;BME280;5107;48.850;8.924;2023-04-30T05:32:57;97111.13;;;10.97;80.54
10135;BME280;5107;48.850;8.924;2023-04-30T05:35:22;97115.91;;;10.94;81.07
10135;BME280;5107;48.850;8.924;2023-04-30T05:37:48;97109.16;;;10.91;81.65
10135;BME280;5107;48.850;8.924;2023-04-30T05:40:13;97115.75;;;11.03;80.85
10135;BME280;5107;48.850;8.924;2023-04-30T05:42:39;97108.50;;;11.06;81.04
10135;BME280;5107;48.850;8.924;2023-04-30T05:45:06;97109.53;;;11.13;81.17
10135;BME280;5107;48.850;8.924;2023-04-30T05:47:31;97105.72;;;11.23;80.62
10135;BME280;5107;48.850;8.924;2023-04-30T05:49:56;97108.72;;;11.28;80.71
10135;BME280;5107;48.850;8.924;2023-04-30T05:52:22;97104.25;;;11.37;80.39
10135;BME280;5107;48.850;8.924;2023-04-30T05:54:48;97102.59;;;11.52;79.26
10135;BME280;5107;48.850;8.924;2023-04-30T05:57:13;97108.19;;;11.49;78.75
10135;BME280;5107;48.850;8.924;2023-04-30T05:59:38;97105.72;;;11.56;78.72
10135;BME280;5107;48.850;8.924;2023-04-30T06:02:03;97103.91;;;11.56;79.06
10135;BME280;5107;48.850;8.924;2023-04-30T06:04:29;97104.88;;;11.63;79.17
10135;BME280;5107;48.850;8.924;2023-04-30T06:06:55;97116.25;;;11.72;78.66
10135;BME280;5107;48.850;8.924;2023-04-30T06:09:21;97109.66;;;11.92;77.40
10135;BME280;5107;48.850;8.924;2023-04-30T06:11:46;97114.25;;;11.98;76.84
10135;BME280;5107;48.850;8.924;2023-04-30T06:14:15;97110.63;;;11.99;76.52
10135;BME280;5107;48.850;8.924;2023-04-30T06:16:40;97112.91;;;12.10;76.38
10135;BME280;5107;48.850;8.924;2023-04-30T06:19:06;97110.22;;;12.27;75.88
10135;BME280;5107;48.850;8.924;2023-04-30T06:21:31;97114.78;;;12.41;74.94
10135;BME280;5107;48.850;8.924;2023-04-30T06:23:56;97123.19;;;12.44;74.58
10135;BME280;5107;48.850;8.924;2023-04-30T06:26:22;97116.97;;;12.37;74.19
10135;BME280;5107;48.850;8.924;2023-04-30T06:28:47;97111.72;;;12.29;74.78
10135;BME280;5107;48.850;8.924;2023-04-30T06:31:12;97116.31;;;12.27;75.01
10135;BME280;5107;48.850;8.924;2023-04-30T06:33:38;97110.19;;;12.35;73.86
10135;BME280;5107;48.850;8.924;2023-04-30T06:36:03;97124.69;;;12.39;74.97
10135;BME280;5107;48.850;8.924;2023-04-30T06:38:30;97111.03;;;12.66;73.92
10135;BME280;5107;48.850;8.924;2023-04-30T06:40:55;97114.41;;;12.52;73.17
10135;BME280;5107;48.850;8.924;2023-04-30T06:43:20;97114.88;;;12.55;73.34
10135;BME280;5107;48.850;8.924;2023-04-30T06:45:46;97115.19;;;12.30;73.74
10135;BME280;5107;48.850;8.924;2023-04-30T06:48:11;97119.09;;;12.34;73.01
10135;BME280;5107;48.850;8.924;2023-04-30T06:50:36;97119.63;;;12.29;73.69
10135;BME280;5107;48.850;8.924;2023-04-30T06:53:09;97116.91;;;12.53;73.32
10135;BME280;5107;48.850;8.924;2023-04-30T06:55:35;97122.09;;;12.70;71.58
10135;BME280;5107;48.850;8.924;2023-04-30T06:58:00;97124.38;;;12.73;71.22
10135;BME280;5107;48.850;8.924;2023-04-30T07:00:25;97124.41;;;12.65;72.42
10135;BME280;5107;48.850;8.924;2023-04-30T07:02:51;97133.06;;;12.50;73.31
10135;BME280;5107;48.850;8.924;2023-04-30T07:05:16;97133.00;;;12.67;73.08
10135;BME280;5107;48.850;8.924;2023-04-30T07:07:42;97125.97;;;12.51;72.40
10135;BME280;5107;48.850;8.924;2023-04-30T07:10:08;97121.63;;;12.19;72.94
10135;BME280;5107;48.850;8.924;2023-04-30T07:12:33;97126.09;;;12.10;73.94
10135;BME280;5107;48.850;8.924;2023-04-30T07:14:58;97122.94;;;12.15;73.44
10135;BME280;5107;48.850;8.924;2023-04-30T07:17:24;97116.31;;;12.27;74.79
10135;BME280;5107;48.850;8.924;2023-04-30T07:19:49;97116.72;;;12.55;72.85
10135;BME280;5107;48.850;8.924;2023-04-30T07:22:15;97116.91;;;13.07;71.67
10135;BME280;5107;48.850;8.924;2023-04-30T07:24:40;97114.31;;;13.30;69.39
10135;BME280;5107;48.850;8.924;2023-04-30T07:27:06;97115.03;;;13.47;69.88
10135;BME280;5107;48.850;8.924;2023-04-30T07:29:32;97111.16;;;13.35;67.30
10135;BME280;5107;48.850;8.924;2023-04-30T07:31:57;97113.25;;;13.62;67.76
10135;BME280;5107;48.850;8.924;2023-04-30T07:34:23;97110.88;;;13.67;67.59
10135;BME280;5107;48.850;8.924;2023-04-30T07:36:49;97106.16;;;13.92;67.07
10135;BME280;5107;48.850;8.924;2023-04-30T07:39:14;97109.91;;;14.86;65.63
10135;BME280;5107;48.850;8.924;2023-04-30T07:41:39;97118.03;;;15.20;62.74
10135;BME280;5107;48.850;8.924;2023-04-30T07:44:05;97102.34;;;15.25;61.48
10135;BME280;5107;48.850;8.924;2023-04-30T07:46:30;97104.34;;;14.80;61.93
10135;BME280;5107;48.850;8.924;2023-04-30T07:48:56;97110.97;;;14.91;62.22
10135;BME280;5107;48.850;8.924;2023-04-30T07:51:21;97105.78;;;14.83;62.52
10135;BME280;5107;48.850;8.924;2023-04-30T07:53:47;97096.72;;;14.92;62.71
10135;BME280;5107;48.850;8.924;2023-04-30T07:56:12;97092.50;;;14.98;62.78
10135;BME280;5107;48.850;8.924;2023-04-30T07:58:37;97098.00;;;14.81;62.29
10135;BME280;5107;48.850;8.924;2023-04-30T08:01:03;97104.72;;;14.77;63.63
10135;BME280;5107;48.850;8.924;2023-04-30T08:03:28;97100.56;;;14.54;64.29
10135;BME280;5107;48.850;8.924;2023-04-30T08:05:53;97096.44;;;14.36;64.49
10135;BME280;5107;48.850;8.924;2023-04-30T08:08:18;97101.09;;;14.64;65.19
10135;BME280;5107;48.850;8.924;2023-04-30T08:10:44;97097.59;;;14.99;62.94
10135;BME280;5107;48.850;8.924;2023-04-30T08:13:09;97112.09;;;15.39;62.43
10135;BME280;5107;48.850;8.924;2023-04-30T08:15:35;97101.59;;;15.74;60.91
10135;BME280;5107;48.850;8.924;2023-04-30T08:18:02;97104.09;;;15.54;58.59
10135;BME280;5107;48.850;8.924;2023-04-30T08:20:27;97106.22;;;15.44;57.94
10135;BME280;5107;48.850;8.924;2023-04-30T08:22:52;97104.63;;;15.28;57.89
10135;BME280;5107;48.850;8.924;2023-04-30T08:25:18;97102.88;;;14.78;57.71
10135;BME280;5107;48.850;8.924;2023-04-30T08:27:43;97110.16;;;14.91;59.21
10135;BME280;5107;48.850;8.924;2023-04-30T08:30:08;97104.50;;;15.57;58.92
10135;BME280;5107;48.850;8.924;2023-04-30T08:32:34;97104.25;;;15.52;57.88
10135;BME280;5107;48.850;8.924;2023-04-30T08:35:03;97106.91;;;15.52;57.63
10135;BME280;5107;48.850;8.924;2023-04-30T08:37:29;97105.06;;;15.53;56.86
10135;BME280;5107;48.850;8.924;2023-04-30T08:39:54;97108.47;;;15.26;58.01
10135;BME280;5107;48.850;8.924;2023-04-30T08:42:24;97094.91;;;15.35;58.33
10135;BME280;5107;48.850;8.924;2023-04-30T08:44:49;97099.72;;;15.68;59.06
10135;BME280;5107;48.850;8.924;2023-04-30T08:47:15;97096.81;;;15.63;51.98
10135;BME280;5107;48.850;8.924;2023-04-30T08:49:42;97088.91;;;15.69;52.64
10135;BME280;5107;48.850;8.924;2023-04-30T08:52:08;97094.22;;;15.97;54.39
10135;BME280;5107;48.850;8.924;2023-04-30T08:54:35;97097.34;;;16.07;53.50
10135;BME280;5107;48.850;8.924;2023-04-30T08:57:01;97093.25;;;16.05;55.90
10135;BME280;5107;48.850;8.924;2023-04-30T08:59:26;97098.75;;;16.03;54.17
10135;BME280;5107;48.850;8.924;2023-04-30T09:01:52;97103.28;;;16.09;50.84
10135;BME280;5107;48.850;8.924;2023-04-30T09:04:17;97097.97;;;16.09;50.46
10135;BME280;5107;48.850;8.924;2023-04-30T09:06:43;97093.78;;;15.66;50.83
10135;BME280;5107;48.850;8.924;2023-04-30T09:09:13;97100.94;;;15.23;52.51
10135;BME280;5107;48.850;8.924;2023-04-30T09:11:39;97098.84;;;15.39;52.20
10135;BME280;5107;48.850;8.924;2023-04-30T09:14:05;97095.22;;;15.47;52.27
10135;BME280;5107;48.850;8.924;2023-04-30T09:16:50;97096.88;;;15.48;53.59
10135;BME280;5107;48.850;8.924;2023-04-30T09:19:25;97093.13;;;15.42;53.57
10135;BME280;5107;48.850;8.924;2023-04-30T09:21:51;97094.53;;;15.17;51.89
10135;BME280;5107;48.850;8.924;2023-04-30T09:24:17;97095.38;;;14.81;52.67
10135;BME280;5107;48.850;8.924;2023-04-30T09:26:42;97090.59;;;14.92;54.02
10135;BME280;5107;48.850;8.924;2023-04-30T09:29:08;97095.41;;;15.03;54.26
10135;BME280;5107;48.850;8.924;2023-04-30T09:31:36;97099.81;;;15.17;53.84
10135;BME280;5107;48.850;8.924;2023-04-30T09:34:02;97093.13;;;15.00;52.68
10135;BME280;5107;48.850;8.924;2023-04-30T09:36:28;97097.59;;;14.99;52.53
10135;BME280;5107;48.850;8.924;2023-04-30T09:38:54;97093.19;;;14.85;52.36
10135;BME280;5107;48.850;8.924;2023-04-30T09:41:24;97091.59;;;14.91;52.23
10135;BME280;5107;48.850;8.924;2023-04-30T09:43:50;97104.03;;;14.90;52.90
10135;BME280;5107;48.850;8.924;2023-04-30T09:46:18;97099.75;;;14.89;53.77
10135;BME280;5107;48.850;8.924;2023-04-30T09:48:44;97108.19;;;14.78;52.67
10135;BME280;5107;48.850;8.924;2023-04-30T09:51:10;97099.88;;;14.66;53.16
10135;BME280;5107;48.850;8.924;2023-04-30T09:53:40;97100.16;;;14.57;51.75
10135;BME280;5107;48.850;8.924;2023-04-30T09:56:07;97099.28;;;14.64;52.25
10135;BME280;5107;48.850;8.924;2023-04-30T09:58:36;97105.47;;;14.71;52.43
10135;BME280;5107;48.850;8.924;2023-04-30T10:01:12;97108.03;;;15.01;52.50
10135;BME280;5107;48.850;8.924;2023-04-30T10:03:39;97097.06;;;15.25;51.41
10135;BME280;5107;48.850;8.924;2023-04-30T10:06:06;97090.31;;;15.44;49.93
10135;BME280;5107;48.850;8.924;2023-04-30T10:08:39;97092.78;;;15.45;50.72
10135;BME280;5107;48.850;8.924;2023-04-30T10:11:09;97101.69;;;15.38;50.55
10135;BME280;5107;48.850;8.924;2023-04-30T10:16:23;97092.53;;;15.62;50.51
10135;BME280;5107;48.850;8.924;2023-04-30T10:18:51;97096.28;;;15.74;49.91
10135;BME280;5107;48.850;8.924;2023-04-30T10:21:19;97086.03;;;15.64;50.09
10135;BME280;5107;48.850;8.924;2023-04-30T10:23:47;97091.75;;;15.68;50.81
10135;BME280;5107;48.850;8.924;2023-04-30T10:26:13;97088.88;;;15.63;50.45
10135;BME280;5107;48.850;8.924;2023-04-30T10:28:41;97098.03;;;15.60;50.77
10135;BME280;5107;48.850;8.924;2023-04-30T10:31:07;97089.09;;;15.46;49.52
10135;BME280;5107;48.850;8.924;2023-04-30T10:33:45;97086.50;;;15.32;50.29
10135;BME280;5107;48.850;8.924;2023-04-30T10:36:28;97089.28;;;15.24;50.04
10135;BME280;5107;48.850;8.924;2023-04-30T10:38:58;97086.72;;;15.30;50.50
10135;BME280;5107;48.850;8.924;2023-04-30T10:41:25;97080.63;;;15.57;50.68
10135;BME280;5107;48.850;8.924;2023-04-30T10:43:55;97086.06;;;15.71;49.43
10135;BME280;5107;48.850;8.924;2023-04-30T10:46:21;97074.50;;;15.78;48.68
10135;BME280;5107;48.850;8.924;2023-04-30T10:48:47;97067.06;;;15.95;47.85
10135;BME280;5107;48.850;8.924;2023-04-30T10:51:13;97066.59;;;15.91;48.04
10135;BME280;5107;48.850;8.924;2023-04-30T10:53:41;97070.63;;;15.81;47.88
10135;BME280;5107;48.850;8.924;2023-04-30T10:56:07;97075.06;;;15.74;48.46
10135;BME280;5107;48.850;8.924;2023-04-30T10:58:37;97064.94;;;15.84;48.18
10135;BME280;5107;48.850;8.924;2023-04-30T11:01:21;97064.44;;;16.43;47.71
10135;BME280;5107;48.850;8.924;2023-04-30T11:04:10;97064.84;;;16.40;48.25
10135;BME280;5107;48.850;8.924;2023-04-30T11:07:08;97056.75;;;16.54;48.04
10135;BME280;5107;48.850;8.924;2023-04-30T11:09:41;97056.72;;;16.48;49.06
10135;BME280;5107;48.850;8.924;2023-04-30T11:12:13;97053.47;;;16.59;48.91
10135;BME280;5107;48.850;8.924;2023-04-30T11:14:43;97050.53;;;16.41;47.86
10135;BME280;5107;48.850;8.924;2023-04-30T11:17:21;97048.03;;;16.32;47.68
10135;BME280;5107;48.850;8.924;2023-04-30T11:19:50;97055.91;;;16.54;47.96
10135;BME280;5107;48.850;8.924;2023-04-30T11:22:18;97046.44;;;16.31;48.32
10135;BME280;5107;48.850;8.924;2023-04-30T11:24:59;97050.94;;;16.38;48.29
10135;BME280;5107;48.850;8.924;2023-04-30T11:27:28;97039.66;;;15.88;47.04
10135;BME280;5107;48.850;8.924;2023-04-30T11:29:54;97049.69;;;15.99;48.72
10135;BME280;5107;48.850;8.924;2023-04-30T11:32:22;97041.47;;;16.22;48.35
10135;BME280;5107;48.850;8.924;2023-04-30T11:34:48;97043.44;;;16.07;47.86
10135;BME280;5107;48.850;8.924;2023-04-30T11:39:56;97039.34;;;16.52;48.04
10135;BME280;5107;48.850;8.924;2023-04-30T11:42:21;97044.44;;;16.47;46.62
10135;BME280;5107;48.850;8.924;2023-04-30T11:44:47;97044.00;;;16.37;46.31
10135;BME280;5107;48.850;8.924;2023-04-30T11:47:13;97035.75;;;16.25;46.22
10135;BME280;5107;48.850;8.924;2023-04-30T11:49:39;97041.06;;;16.25;46.96
10135;BME280;5107;48.850;8.924;2023-04-30T11:52:05;97029.34;;;16.06;46.49
10135;BME280;5107;48.850;8.924;2023-04-30T11:54:31;97035.50;;;16.13;47.17
10135;BME280;5107;48.850;8.924;2023-04-30T11:56:56;97029.84;;;16.23;46.68
10135;BME280;5107;48.850;8.924;2023-04-30T11:59:27;97022.63;;;16.17;47.59
10135;BME280;5107;48.850;8.924;2023-04-30T12:01:53;97025.78;;;16.33;47.24
10135;BME280;5107;48.850;8.924;2023-04-30T12:04:18;97025.34;;;16.23;47.16
10135;BME280;5107;48.850;8.924;2023-04-30T12:06:44;97023.88;;;16.14;47.43
10135;BME280;5107;48.850;8.924;2023-04-30T12:09:09;97013.41;;;16.06;47.54
10135;BME280;5107;48.850;8.924;2023-04-30T12:11:37;97014.94;;;16.28;48.27
10135;BME280;5107;48.850;8.924;2023-04-30T12:14:07;97023.59;;;16.44;48.03
10135;BME280;5107;48.850;8.924;2023-04-30T12:19:06;97016.88;;;16.48;46.92
10135;BME280;5107;48.850;8.924;2023-04-30T12:21:33;97023.41;;;16.52;47.26
10135;BME280;5107;48.850;8.924;2023-04-30T12:23:58;97022.44;;;16.66;47.40
10135;BME280;5107;48.850;8.924;2023-04-30T12:26:24;97028.03;;;16.84;47.97
10135;BME280;5107;48.850;8.924;2023-04-30T12:28:58;97026.56;;;16.75;46.78
10135;BME280;5107;48.850;8.924;2023-04-30T12:31:23;97029.41;;;16.67;47.33
10135;BME280;5107;48.850;8.924;2023-04-30T12:33:54;97030.09;;;16.89;47.82
10135;BME280;5107;48.850;8.924;2023-04-30T12:36:20;97024.94;;;16.74;47.53
10135;BME280;5107;48.850;8.924;2023-04-30T12:38:46;97017.09;;;16.59;48.13
10135;BME280;5107;48.850;8.924;2023-04-30T12:41:11;97022.31;;;16.33;48.30
10135;BME280;5107;48.850;8.924;2023-04-30T12:43:41;97027.22;;;16.29;48.73
10135;BME280;5107;48.850;8.924;2023-04-30T12:46:06;97019.78;;;16.18;48.06
10135;BME280;5107;48.850;8.924;2023-04-30T12:48:42;97013.66;;;16.18;48.32
10135;BME280;5107;48.850;8.924;2023-04-30T12:51:09;97008.28;;;15.98;47.01
10135;BME280;5107;48.850;8.924;2023-04-30T12:53:44;97004.34;;;15.94;47.77
10135;BME280;5107;48.850;8.924;2023-04-30T12:56:14;96999.66;;;15.89;47.81
10135;BME280;5107;48.850;8.924;2023-04-30T12:58:45;97003.00;;;16.05;47.87
10135;BME280;5107;48.850;8.924;2023-04-30T13:01:20;96992.25;;;16.26;48.84
10135;BME280;5107;48.850;8.924;2023-04-30T13:03:48;96995.31;;;16.23;47.44
10135;BME280;5107;48.850;8.924;2023-04-30T13:06:14;96991.88;;;16.29;46.92
10135;BME280;5107;48.850;8.924;2023-04-30T13:08:39;96995.19;;;16.51;48.24
10135;BME280;5107;48.850;8.924;2023-04-30T13:11:05;96997.44;;;16.47;46.65
10135;BME280;5107;48.850;8.924;2023-04-30T13:13:32;96988.84;;;16.45;46.78
10135;BME280;5107;48.850;8.924;2023-04-30T13:15:58;96985.41;;;16.58;46.55
10135;BME280;5107;48.850;8.924;2023-04-30T13:18:23;96979.88;;;16.53;46.10
10135;BME280;5107;48.850;8.924;2023-04-30T13:20:49;96976.50;;;16.72;45.70
10135;BME280;5107;48.850;8.924;2023-04-30T13:23:14;96979.16;;;16.72;45.33
10135;BME280;5107;48.850;8.924;2023-04-30T13:25:39;96976.31;;;16.87;44.32
10135;BME280;5107;48.850;8.924;2023-04-30T13:28:06;96973.84;;;16.92;44.95
10135;BME280;5107;48.850;8.924;2023-04-30T13:30:31;96978.38;;;17.04;45.36
10135;BME280;5107;48.850;8.924;2023-04-30T13:32:57;96970.16;;;16.86;45.63